Time;durP1;ratioP1;P1;durP2;ratioP2;P2;SDS_P1;SDS_P2;PMS_P1;PMS_P2;Temp;Humidity;BMP_temperature;BMP_pressure;BME280_temperature;BME280_humidity;BME280_pressure;Samples;Min_cycle;Max_cycle;Signal;HPM_P1;HPM_P2
2022/11/08 00:02:27;;;;;;;4.80;2.60;;;11.90;1.00;;;;;;5043603;28;20201;-62
2022/11/08 00:04:53;;;;;;;3.33;2.77;;;;;;;;;;5044136;28;20434;-61
2022/11/08 00:15:37;;;;;;;5.00;2.60;;;11.90;1.00;;;;;;5046750;28;20476;-61
2022/11/08 00:18:03;;;;;;;5.07;3.40;;;11.80;1.00;;;;;;5042629;28;20431;-60
2022/11/08 00:20:29;;;;;;;4.03;3.20;;;11.70;1.00;;;;;;5046336;28;20952;-62
2022/11/08 00:22:55;;;;;;;3.50;2.90;;;;;;;;;;5048115;28;20436;-62
2022/11/08 00:25:20;;;;;;;7.57;3.90;;;11.60;1.00;;;;;;5045539;28;20219;-61
2022/11/08 00:27:46;;;;;;;8.40;3.60;;;11.70;1.00;;;;;;5048039;28;20454;-62
2022/11/08 00:30:11;;;;;;;3.30;3.00;;;11.70;1.00;;;;;;5046350;28;20200;-61
2022/11/08 00:32:37;;;;;;;4.70;2.70;;;11.70;1.00;;;;;;5046232;28;20210;-62
2022/11/08 00:35:03;;;;;;;4.03;3.50;;;;;;;;;;5044272;28;20231;-61
2022/11/08 00:37:29;;;;;;;6.03;3.73;;;11.80;1.00;;;;;;5046232;28;20191;-62
2022/11/08 00:39:54;;;;;;;4.90;2.60;;;11.70;1.00;;;;;;5046083;28;20460;-62
2022/11/08 00:42:20;;;;;;;4.33;3.10;;;11.90;1.00;;;;;;5047009;28;20192;-61
2022/11/08 00:44:46;;;;;;;5.17;3.10;;;;;;;;;;5048470;28;21945;-62
2022/11/08 00:47:11;;;;;;;4.83;3.63;;;11.60;1.00;;;;;;5050474;28;20221;-62
2022/11/08 00:49:37;;;;;;;3.60;2.90;;;11.60;1.00;;;;;;5051108;28;20535;-62
2022/11/08 00:52:02;;;;;;;3.50;3.20;;;11.60;1.00;;;;;;5051431;28;20263;-62
2022/11/08 00:54:28;;;;;;;3.60;2.53;;;11.60;1.00;;;;;;5048886;28;20689;-61
2022/11/08 00:56:53;;;;;;;6.57;4.03;;;11.70;1.00;;;;;;5047869;28;20191;-64
2022/11/08 00:59:19;;;;;;;3.67;3.33;;;;;;;;;;5046681;28;20195;-64
2022/11/08 01:01:46;;;;;;;3.23;2.70;;;11.80;1.00;;;;;;5051282;28;20671;-63
2022/11/08 01:04:16;;;;;;;6.93;3.23;;;11.80;1.00;;;;;;5050118;28;20959;-63
2022/11/08 01:06:42;;;;;;;5.87;3.47;;;11.90;1.00;;;;;;5048233;28;20445;-62
2022/11/08 01:09:08;;;;;;;4.50;2.70;;;11.70;1.00;;;;;;5050776;28;20425;-63
2022/11/08 01:11:34;;;;;;;3.60;2.77;;;11.80;1.00;;;;;;5049994;28;21118;-61
2022/11/08 01:14:01;;;;;;;4.80;2.80;;;11.70;1.00;;;;;;5050692;28;20518;-61
2022/11/08 01:16:30;;;;;;;4.67;2.87;;;11.70;1.00;;;;;;5049783;28;20474;-62
2022/11/08 01:18:56;;;;;;;4.60;3.27;;;11.70;1.00;;;;;;5048228;28;20429;-61
2022/11/08 01:21:23;;;;;;;4.90;2.97;;;11.50;1.00;;;;;;5045765;28;20460;-61
2022/11/08 01:23:48;;;;;;;9.53;3.70;;;11.40;1.00;;;;;;5042522;28;20425;-61
2022/11/08 01:26:23;;;;;;;6.73;3.40;;;11.40;1.00;;;;;;5046861;28;20447;-62
2022/11/08 01:28:49;;;;;;;4.53;3.00;;;11.20;1.00;;;;;;5047300;28;20189;-62
2022/11/08 01:31:18;;;;;;;5.00;2.70;;;11.20;1.00;;;;;;5050502;28;20567;-62
2022/11/08 01:33:43;;;;;;;3.00;2.70;;;11.20;1.00;;;;;;5047366;28;20437;-62
2022/11/08 01:36:13;;;;;;;5.90;2.87;;;11.40;1.00;;;;;;5048820;28;20444;-61
2022/11/08 01:38:39;;;;;;;5.53;2.90;;;11.20;1.00;;;;;;5045902;28;20194;-62
2022/11/08 01:41:06;;;;;;;3.67;3.03;;;11.10;1.00;;;;;;5045612;28;21060;-61
2022/11/08 01:43:40;;;;;;;5.50;2.93;;;11.00;1.00;;;;;;5050512;28;20421;-61
2022/11/08 01:46:09;;;;;;;4.17;3.40;;;11.20;1.00;;;;;;5045236;28;20424;-62
2022/11/08 01:48:39;;;;;;;5.83;3.50;;;10.90;1.00;;;;;;5046837;28;20449;-61
2022/11/08 01:51:08;;;;;;;3.93;2.97;;;11.00;1.00;;;;;;5044589;28;20450;-61
2022/11/08 01:53:34;;;;;;;3.57;3.00;;;;;;;;;;5045181;28;20461;-62
2022/11/08 01:56:00;;;;;;;5.60;3.40;;;11.20;1.00;;;;;;5049007;28;20473;-60
2022/11/08 01:58:32;;;;;;;4.20;2.90;;;10.90;1.00;;;;;;5045574;28;20974;-61
2022/11/08 02:01:00;;;;;;;4.80;3.10;;;10.90;1.00;;;;;;5043000;28;20529;-62
2022/11/08 02:03:27;;;;;;;5.00;3.30;;;10.80;1.00;;;;;;5048576;28;20445;-62
2022/11/08 02:05:53;;;;;;;5.30;2.87;;;10.80;1.00;;;;;;5048636;28;20453;-61
2022/11/08 02:08:37;;;;;;;5.63;3.10;;;10.80;1.00;;;;;;5048602;28;20544;-61
2022/11/08 02:11:03;;;;;;;9.10;3.30;;;10.70;1.00;;;;;;5048690;28;20193;-62
2022/11/08 02:13:33;;;;;;;5.50;2.80;;;10.70;1.00;;;;;;5049296;28;20480;-60
2022/11/08 02:15:59;;;;;;;5.47;2.93;;;10.60;1.00;;;;;;5044279;28;20484;-62
2022/11/08 02:18:27;;;;;;;8.50;3.47;;;10.70;1.00;;;;;;5048798;28;20936;-62
2022/11/08 02:21:01;;;;;;;6.10;3.37;;;10.70;1.00;;;;;;5046934;28;20711;-62
2022/11/08 02:23:41;;;;;;;4.30;3.57;;;10.60;1.00;;;;;;5042406;28;20786;-60
2022/11/08 02:26:07;;;;;;;5.47;4.10;;;10.70;1.00;;;;;;5045501;28;20494;-63
2022/11/08 02:28:41;;;;;;;4.33;3.23;;;10.70;1.00;;;;;;5046651;28;20457;-61
2022/11/08 02:31:08;;;;;;;4.80;3.70;;;10.70;1.00;;;;;;5046699;28;20186;-61
2022/11/08 02:33:34;;;;;;;7.00;3.47;;;10.60;1.00;;;;;;5048240;28;20443;-61
2022/11/08 02:36:01;;;;;;;7.80;3.50;;;10.60;1.00;;;;;;5045022;28;20488;-61
2022/11/08 02:38:27;;;;;;;6.13;3.93;;;10.50;1.00;;;;;;5042801;28;20195;-61
2022/11/08 02:40:55;;;;;;;7.07;4.37;;;10.60;1.00;;;;;;5049151;28;20952;-61
2022/11/08 02:43:22;;;;;;;5.90;4.40;;;10.60;1.00;;;;;;5047403;28;20456;-61
2022/11/08 02:45:49;;;;;;;7.43;4.37;;;10.50;1.00;;;;;;5048717;28;20485;-61
2022/11/08 02:48:15;;;;;;;7.20;4.30;;;10.50;1.00;;;;;;5048137;28;20859;-61
2022/11/08 02:50:41;;;;;;;7.37;4.80;;;10.40;1.00;;;;;;5046457;28;20541;-61
2022/11/08 02:53:07;;;;;;;11.20;4.70;;;10.40;1.00;;;;;;5048861;28;20536;-61
2022/11/08 02:55:33;;;;;;;5.47;4.07;;;10.40;1.00;;;;;;5045211;28;20219;-61
2022/11/08 02:57:59;;;;;;;5.90;3.97;;;;;;;;;;5046456;28;20449;-61
2022/11/08 03:00:25;;;;;;;9.70;4.57;;;;;;;;;;5045386;28;20536;-61
2022/11/08 03:02:52;;;;;;;7.30;4.23;;;10.30;1.00;;;;;;5048117;28;20650;-61
2022/11/08 03:05:18;;;;;;;10.73;5.40;;;10.40;1.00;;;;;;5045935;28;20556;-61
2022/11/08 03:07:44;;;;;;;6.70;4.83;;;10.40;1.00;;;;;;5047839;28;20523;-61
2022/11/08 03:10:10;;;;;;;7.23;5.03;;;10.30;1.00;;;;;;5046669;28;20991;-61
2022/11/08 03:12:37;;;;;;;7.23;5.13;;;10.30;1.00;;;;;;5043641;28;20226;-61
2022/11/08 03:15:04;;;;;;;6.63;4.60;;;10.30;1.00;;;;;;5045750;28;20507;-61
2022/11/08 03:17:30;;;;;;;7.13;5.03;;;10.30;1.00;;;;;;5046430;28;20506;-62
2022/11/08 03:19:56;;;;;;;10.20;5.70;;;;;;;;;;5043683;28;20445;-62
2022/11/08 03:22:21;;;;;;;7.17;5.07;;;10.40;1.00;;;;;;5048161;28;20209;-62
2022/11/08 03:24:47;;;;;;;7.23;4.63;;;10.40;1.00;;;;;;5045418;28;20428;-61
2022/11/08 03:27:14;;;;;;;9.60;5.30;;;10.30;1.00;;;;;;5048137;28;20200;-62
2022/11/08 03:29:40;;;;;;;4.70;4.30;;;;;;;;;;5046554;28;20564;-61
2022/11/08 03:32:05;;;;;;;5.23;4.73;;;10.20;1.00;;;;;;5042327;28;20450;-60
2022/11/08 03:34:31;;;;;;;6.97;5.60;;;;;;;;;;5044809;28;20447;-61
2022/11/08 03:36:57;;;;;;;4.53;4.13;;;10.20;1.00;;;;;;5047400;28;20652;-62
2022/11/08 03:39:23;;;;;;;5.83;4.80;;;;;;;;;;5047289;28;20831;-62
2022/11/08 03:41:48;;;;;;;6.07;5.30;;;10.20;1.00;;;;;;5040703;28;20187;-62
2022/11/08 03:44:15;;;;;;;8.57;5.17;;;10.20;1.00;;;;;;5047797;28;20440;-61
2022/11/08 03:46:41;;;;;;;7.13;5.20;;;10.20;1.00;;;;;;5047146;28;20286;-61
2022/11/08 03:49:06;;;;;;;8.37;5.43;;;;;;;;;;5047813;28;21022;-61
2022/11/08 03:51:32;;;;;;;8.47;5.70;;;;;;;;;;5045127;28;20683;-61
2022/11/08 03:53:58;;;;;;;7.97;6.03;;;10.10;1.00;;;;;;5045200;28;20513;-63
2022/11/08 03:56:24;;;;;;;8.87;6.40;;;10.10;1.00;;;;;;5046606;28;20427;-61
2022/11/08 03:58:49;;;;;;;6.10;4.97;;;10.10;1.00;;;;;;5047365;28;20188;-61
2022/11/08 04:01:15;;;;;;;8.67;6.10;;;10.20;1.00;;;;;;5047366;28;20278;-60
2022/11/08 04:03:40;;;;;;;9.27;5.27;;;10.30;1.00;;;;;;5047789;28;20204;-61
2022/11/08 04:06:06;;;;;;;8.77;6.33;;;10.30;1.00;;;;;;5039985;28;20196;-61
2022/11/08 04:08:32;;;;;;;7.97;5.70;;;10.20;1.00;;;;;;5045106;28;20195;-62
2022/11/08 04:16:26;;;;;;;11.00;6.47;;;10.00;1.00;;;;;;5043036;28;20426;-61
2022/11/08 04:21:37;;;;;;;8.00;5.63;;;10.00;1.00;;;;;;5048967;28;20632;-62
2022/11/08 04:24:02;;;;;;;10.00;6.40;;;9.90;1.00;;;;;;5050855;28;20460;-61
2022/11/08 04:26:28;;;;;;;10.33;6.93;;;10.00;1.00;;;;;;5049704;28;20216;-61
2022/11/08 04:28:54;;;;;;;8.03;6.20;;;10.00;1.00;;;;;;5044705;28;20290;-61
2022/11/08 04:31:20;;;;;;;8.03;6.30;;;10.00;1.00;;;;;;5050388;28;20252;-60
2022/11/08 04:33:46;;;;;;;8.50;6.27;;;9.90;1.00;;;;;;5051439;28;20684;-60
2022/11/08 04:36:13;;;;;;;15.30;7.00;;;9.90;1.00;;;;;;5048827;28;20481;-61
2022/11/08 04:38:39;;;;;;;12.17;6.37;;;;;;;;;;5048330;28;20199;-60
2022/11/08 04:41:08;;;;;;;7.23;6.53;;;9.90;1.00;;;;;;5047209;28;20408;-60
2022/11/08 04:43:34;;;;;;;12.97;7.00;;;9.90;1.00;;;;;;5048412;28;20427;-61
2022/11/08 04:46:02;;;;;;;6.80;6.10;;;9.80;1.00;;;;;;5051119;28;21149;-61
2022/11/08 04:48:28;;;;;;;11.60;7.20;;;9.90;1.00;;;;;;5049168;28;20274;-60
2022/11/08 04:50:54;;;;;;;8.23;6.13;;;;;;;;;;5046137;28;20569;-60
2022/11/08 04:53:20;;;;;;;9.50;6.13;;;9.80;1.00;;;;;;5048745;28;20274;-61
2022/11/08 04:55:45;;;;;;;9.93;7.00;;;9.70;1.00;;;;;;5050444;28;20447;-60
2022/11/08 04:58:11;;;;;;;9.50;6.53;;;9.70;1.00;;;;;;5050287;28;20799;-61
2022/11/08 05:00:37;;;;;;;12.07;7.70;;;;;;;;;;5049886;28;20711;-62
2022/11/08 05:03:02;;;;;;;7.80;6.50;;;9.70;1.00;;;;;;5050831;28;20669;-61
2022/11/08 05:05:28;;;;;;;10.77;7.10;;;9.70;1.00;;;;;;5049789;28;21013;-60
2022/11/08 05:07:54;;;;;;;12.23;7.50;;;9.70;1.00;;;;;;5047120;28;20211;-62
2022/11/08 05:10:19;;;;;;;12.03;8.50;;;9.60;1.00;;;;;;5047298;28;20184;-61
2022/11/08 05:12:45;;;;;;;11.43;7.20;;;;;;;;;;5050375;28;20594;-60
2022/11/08 05:15:11;;;;;;;8.97;7.10;;;9.60;1.00;;;;;;5050696;28;20223;-60
2022/11/08 05:17:37;;;;;;;10.77;7.20;;;9.60;1.00;;;;;;5049734;28;20428;-61
2022/11/08 05:25:32;;;;;;;9.53;7.77;;;9.60;1.00;;;;;;5042443;28;21037;-61
2022/11/08 05:27:59;;;;;;;11.40;7.57;;;;;;;;;;5045390;28;20532;-61
2022/11/08 05:30:24;;;;;;;12.40;6.70;;;9.60;1.00;;;;;;5048352;28;20890;-60
2022/11/08 05:32:51;;;;;;;10.77;6.43;;;9.60;1.00;;;;;;5049441;28;20453;-60
2022/11/08 05:35:20;;;;;;;9.00;7.00;;;;;;;;;;5050189;28;20215;-62
2022/11/08 05:37:46;;;;;;;12.27;7.90;;;;;;;;;;5046125;28;20466;-60
2022/11/08 05:40:12;;;;;;;10.30;7.40;;;9.60;1.00;;;;;;5048826;28;20544;-61
2022/11/08 05:42:37;;;;;;;10.50;6.70;;;9.60;1.00;;;;;;5048321;28;20539;-61
2022/11/08 05:45:03;;;;;;;9.73;6.90;;;9.50;1.00;;;;;;5049795;28;20596;-61
2022/11/08 05:47:29;;;;;;;8.80;6.63;;;9.50;1.00;;;;;;5049872;28;20181;-61
2022/11/08 05:49:54;;;;;;;12.53;7.53;;;9.60;1.00;;;;;;5048122;28;20189;-62
2022/11/08 05:52:20;;;;;;;12.37;7.30;;;9.60;1.00;;;;;;5049278;28;20194;-62
2022/11/08 05:54:45;;;;;;;9.07;6.40;;;9.50;1.00;;;;;;5046755;28;20211;-60
2022/11/08 05:57:11;;;;;;;8.20;6.90;;;9.50;1.00;;;;;;5049072;28;20202;-61
2022/11/08 05:59:37;;;;;;;10.13;7.50;;;;;;;;;;5048225;28;20250;-61
2022/11/08 06:02:03;;;;;;;11.40;7.10;;;;;;;;;;5048470;28;20257;-60
2022/11/08 06:04:28;;;;;;;11.80;7.20;;;9.50;1.00;;;;;;5046385;28;20552;-61
2022/11/08 06:06:54;;;;;;;9.30;6.63;;;;;;;;;;5047333;28;20456;-61
2022/11/08 06:09:20;;;;;;;8.33;7.40;;;9.50;1.00;;;;;;5046496;28;20187;-61
2022/11/08 06:11:46;;;;;;;11.50;7.27;;;;;;;;;;5049165;28;20458;-61
2022/11/08 06:14:12;;;;;;;9.73;7.60;;;;;;;;;;5048093;28;20231;-61
2022/11/08 06:16:37;;;;;;;12.53;7.00;;;9.60;1.00;;;;;;5048941;28;20475;-61
2022/11/08 06:19:03;;;;;;;12.77;7.37;;;9.60;1.00;;;;;;5046758;28;20446;-61
2022/11/08 06:21:28;;;;;;;11.43;6.73;;;9.60;1.00;;;;;;5049052;28;20202;-60
2022/11/08 06:23:54;;;;;;;9.80;7.83;;;9.50;1.00;;;;;;5047558;28;20610;-61
2022/11/08 06:26:21;;;;;;;10.23;6.20;;;9.60;1.00;;;;;;5044246;28;20680;-62
2022/11/08 06:28:47;;;;;;;13.87;6.87;;;;;;;;;;5048508;28;20245;-63
2022/11/08 06:31:13;;;;;;;9.37;7.03;;;;;;;;;;5046606;28;20889;-60
2022/11/08 06:33:39;;;;;;;11.40;7.83;;;9.60;1.00;;;;;;5047511;28;20834;-61
2022/11/08 06:36:05;;;;;;;10.77;6.73;;;9.60;1.00;;;;;;5045862;28;20944;-62
2022/11/08 06:38:31;;;;;;;11.33;7.57;;;9.60;1.00;;;;;;5048924;28;20201;-62
2022/11/08 06:41:01;;;;;;;12.93;8.20;;;9.70;1.00;;;;;;5046960;28;20457;-62
2022/11/08 06:43:26;;;;;;;14.03;7.10;;;9.70;1.00;;;;;;5046231;28;20195;-61
2022/11/08 06:45:52;;;;;;;8.83;7.93;;;;;;;;;;5046979;28;20770;-61
2022/11/08 06:48:18;;;;;;;11.67;7.37;;;9.80;1.00;;;;;;5043815;28;20498;-61
2022/11/08 06:50:43;;;;;;;15.80;6.97;;;9.80;1.00;;;;;;5048418;28;20450;-60
2022/11/08 06:53:13;;;;;;;9.50;7.30;;;9.90;1.00;;;;;;5043616;28;20190;-61
2022/11/08 06:55:39;;;;;;;12.53;8.23;;;10.00;1.00;;;;;;5046608;28;20225;-61
2022/11/08 06:58:04;;;;;;;12.57;7.50;;;10.10;1.00;;;;;;5048131;28;20436;-60
2022/11/08 07:00:31;;;;;;;8.03;7.23;;;;;;;;;;5046808;28;20422;-60
2022/11/08 07:02:58;;;;;;;7.90;7.10;;;10.30;1.00;;;;;;5046193;28;20195;-61
2022/11/08 07:05:25;;;;;;;9.67;6.93;;;10.30;1.00;;;;;;5046255;28;20510;-61
2022/11/08 07:07:51;;;;;;;8.87;6.53;;;10.30;1.00;;;;;;5045722;28;20494;-61
2022/11/08 07:10:18;;;;;;;10.10;7.30;;;10.40;1.00;;;;;;5047079;28;20438;-61
2022/11/08 07:12:44;;;;;;;12.70;7.20;;;10.40;1.00;;;;;;5045623;28;20579;-63
2022/11/08 07:15:10;;;;;;;9.63;6.80;;;10.40;1.00;;;;;;5042895;28;20568;-61
2022/11/08 07:17:36;;;;;;;7.27;6.57;;;;;;;;;;5044616;28;20653;-61
2022/11/08 07:20:01;;;;;;;10.53;7.13;;;10.60;1.00;;;;;;5044746;28;20241;-62
2022/11/08 07:22:27;;;;;;;9.40;7.40;;;10.70;1.00;;;;;;5046713;28;20518;-61
2022/11/08 07:24:53;;;;;;;12.33;7.73;;;;;;;;;;5048062;28;20195;-61
2022/11/08 07:27:19;;;;;;;9.13;7.03;;;;;;;;;;5046970;28;20203;-60
2022/11/08 07:29:44;;;;;;;11.03;7.47;;;10.80;1.00;;;;;;5045585;28;20425;-61
2022/11/08 07:32:10;;;;;;;11.27;8.17;;;10.80;1.00;;;;;;5047175;28;20447;-62
2022/11/08 07:34:36;;;;;;;9.50;8.37;;;;;;;;;;5046736;28;20214;-61
2022/11/08 07:37:01;;;;;;;14.73;8.33;;;10.90;1.00;;;;;;5047316;28;20432;-60
2022/11/08 07:39:27;;;;;;;9.60;7.70;;;10.80;1.00;;;;;;5046991;28;20469;-61
2022/11/08 07:41:53;;;;;;;12.50;7.70;;;;;;;;;;5047463;28;20186;-62
2022/11/08 07:44:18;;;;;;;14.17;7.50;;;10.80;1.00;;;;;;5047335;28;20191;-63
2022/11/08 07:46:44;;;;;;;8.23;6.83;;;10.90;1.00;;;;;;5046008;28;20429;-61
2022/11/08 07:49:09;;;;;;;11.70;7.70;;;10.90;1.00;;;;;;5046241;28;20196;-61
2022/11/08 07:51:35;;;;;;;10.30;7.10;;;;;;;;;;5044458;28;20290;-60
2022/11/08 07:54:01;;;;;;;10.47;7.93;;;11.00;1.00;;;;;;5042880;28;20200;-61
2022/11/08 07:56:26;;;;;;;12.00;8.43;;;11.00;1.00;;;;;;5042196;28;21192;-61
2022/11/08 07:58:52;;;;;;;14.37;7.43;;;11.20;1.00;;;;;;5045313;28;20546;-61
2022/11/08 08:01:18;;;;;;;10.20;7.30;;;11.30;1.00;;;;;;5047569;28;20543;-60
2022/11/08 08:03:44;;;;;;;11.80;7.60;;;11.30;1.00;;;;;;5044441;28;20682;-61
2022/11/08 08:06:10;;;;;;;10.97;7.97;;;11.40;1.00;;;;;;5044688;28;20200;-60
2022/11/08 08:08:35;;;;;;;14.37;8.30;;;11.40;1.00;;;;;;5046121;28;20700;-61
2022/11/08 08:11:02;;;;;;;10.50;8.10;;;11.50;1.00;;;;;;5046881;28;20455;-61
2022/11/08 08:13:28;;;;;;;8.47;7.57;;;11.70;1.00;;;;;;5047302;28;20770;-62
2022/11/08 08:15:58;;;;;;;9.60;7.73;;;11.70;1.00;;;;;;5043379;28;20466;-61
2022/11/08 08:18:23;;;;;;;8.73;6.97;;;11.70;1.00;;;;;;5044589;28;20540;-61
2022/11/08 08:20:49;;;;;;;7.83;6.70;;;11.80;1.00;;;;;;5046385;28;20540;-62
2022/11/08 08:23:15;;;;;;;13.57;7.57;;;11.90;1.00;;;;;;5047100;28;20184;-62
2022/11/08 08:25:40;;;;;;;9.97;6.80;;;12.00;1.00;;;;;;5042327;28;20709;-62
2022/11/08 08:28:06;;;;;;;9.77;7.80;;;;;;;;;;5043923;28;20199;-62
2022/11/08 08:30:33;;;;;;;9.53;6.23;;;;;;;;;;5045389;28;20206;-61
2022/11/08 08:33:04;;;;;;;10.97;7.03;;;12.40;1.00;;;;;;5044997;28;20938;-61
2022/11/08 08:35:30;;;;;;;9.10;6.87;;;12.60;1.00;;;;;;5045278;28;20505;-61
2022/11/08 08:37:59;;;;;;;8.43;7.50;;;12.70;1.00;;;;;;5045133;28;20476;-61
2022/11/08 08:40:26;;;;;;;7.90;6.17;;;;;;;;;;5045528;28;20667;-61
2022/11/08 08:42:52;;;;;;;8.43;6.60;;;;;;;;;;5045956;28;20446;-60
2022/11/08 08:45:17;;;;;;;9.67;6.47;;;12.80;1.00;;;;;;5044958;28;20535;-60
2022/11/08 08:47:43;;;;;;;10.70;7.30;;;12.90;1.00;;;;;;5045963;28;20542;-61
2022/11/08 08:50:09;;;;;;;8.40;6.43;;;13.00;1.00;;;;;;5046077;28;20201;-61
2022/11/08 08:52:36;;;;;;;10.77;6.80;;;13.10;1.00;;;;;;5046649;28;20904;-61
2022/11/08 08:55:02;;;;;;;7.67;6.53;;;;;;;;;;5042714;28;20474;-61
2022/11/08 08:57:27;;;;;;;12.17;7.27;;;13.10;1.00;;;;;;5045107;28;20460;-62
2022/11/08 08:59:53;;;;;;;8.20;6.00;;;13.30;1.00;;;;;;5046289;28;20416;-62
2022/11/08 09:02:19;;;;;;;8.40;6.13;;;;;;;;;;5045082;28;20815;-62
2022/11/08 09:04:44;;;;;;;10.10;6.50;;;13.50;1.00;;;;;;5044795;28;20269;-62
2022/11/08 09:07:10;;;;;;;7.03;6.33;;;13.60;1.00;;;;;;5048870;28;20460;-62
2022/11/08 09:09:36;;;;;;;9.20;7.10;;;13.70;1.00;;;;;;5050489;28;20448;-61
2022/11/08 09:12:02;;;;;;;8.37;6.53;;;;;;;;;;5049588;28;20223;-61
2022/11/08 09:14:28;;;;;;;7.17;5.97;;;13.80;1.00;;;;;;5048858;28;20530;-61
2022/11/08 09:16:53;;;;;;;9.47;6.40;;;13.90;1.00;;;;;;5046677;28;20461;-62
2022/11/08 09:19:19;;;;;;;14.37;6.10;;;14.10;1.00;;;;;;5045527;28;20288;-62
2022/11/08 09:21:44;;;;;;;6.70;5.83;;;14.10;1.00;;;;;;5045064;28;20548;-62
2022/11/08 09:24:10;;;;;;;6.70;6.00;;;;;;;;;;5046813;28;20613;-61
2022/11/08 09:26:36;;;;;;;8.83;6.43;;;14.10;1.00;;;;;;5048680;28;20245;-62
2022/11/08 09:29:01;;;;;;;8.30;5.70;;;14.20;1.00;;;;;;5049871;28;20963;-64
2022/11/08 09:31:27;;;;;;;9.47;6.80;;;14.40;1.00;;;;;;5045242;28;20190;-62
2022/11/08 09:33:53;;;;;;;7.07;5.50;;;14.40;1.00;;;;;;5048520;28;20558;-62
2022/11/08 09:36:18;;;;;;;8.10;5.60;;;14.50;1.00;;;;;;5049741;28;20293;-63
2022/11/08 09:38:44;;;;;;;7.17;5.87;;;14.50;1.00;;;;;;5048932;28;20241;-62
2022/11/08 09:41:25;;;;;;;7.50;5.70;;;14.60;1.00;;;;;;5048566;28;20187;-62
2022/11/08 09:44:05;;;;;;;10.70;5.90;;;14.70;1.00;;;;;;5049081;28;20445;-61
2022/11/08 09:46:46;;;;;;;7.50;5.67;;;14.80;1.00;;;;;;5043646;28;20462;-61
2022/11/08 09:49:25;;;;;;;7.47;5.90;;;14.80;1.00;;;;;;5049281;28;20490;-62
2022/11/08 09:51:51;;;;;;;6.93;5.33;;;15.00;1.00;;;;;;5048307;28;20426;-62
2022/11/08 09:54:26;;;;;;;6.47;5.27;;;15.10;1.00;;;;;;5043942;28;20832;-62
2022/11/08 09:56:54;;;;;;;7.40;5.37;;;15.20;1.00;;;;;;5044438;28;20422;-62
2022/11/08 10:00:01;;;;;;;5.13;4.60;;;15.30;1.00;;;;;;5048815;28;20425;-62
2022/11/08 10:02:27;;;;;;;6.70;4.80;;;15.40;1.00;;;;;;5006173;28;20462;-62
2022/11/08 10:05:00;;;;;;;10.70;5.10;;;15.60;1.00;;;;;;5005811;28;20424;-62
2022/11/08 10:07:52;;;;;;;7.90;4.53;;;15.70;1.00;;;;;;5026945;28;20444;-64
2022/11/08 10:10:54;;;;;;;8.50;5.80;;;15.80;1.00;;;;;;5042048;28;20956;-62
2022/11/08 10:13:50;;;;;;;6.07;5.10;;;15.80;1.00;;;;;;5047865;28;20457;-63
2022/11/08 10:16:28;;;;;;;6.10;4.93;;;15.90;1.00;;;;;;5047211;28;20536;-63
2022/11/08 10:19:15;;;;;;;8.50;4.93;;;16.00;1.00;;;;;;5046059;28;20447;-62
2022/11/08 10:22:14;;;;;;;10.00;4.73;;;16.10;1.00;;;;;;5048024;28;20522;-61
2022/11/08 10:24:40;;;;;;;9.60;5.10;;;;;;;;;;5042385;28;20453;-61
2022/11/08 10:27:36;;;;;;;6.40;5.33;;;16.40;1.00;;;;;;5045095;28;20468;-62
2022/11/08 10:30:11;;;;;;;7.87;5.23;;;16.50;1.00;;;;;;5039738;28;20450;-63
2022/11/08 10:32:38;;;;;;;6.47;4.50;;;16.50;1.00;;;;;;5039334;28;20505;-61
2022/11/08 10:35:19;;;;;;;6.40;4.30;;;16.50;1.00;;;;;;5046290;28;20477;-62
2022/11/08 10:37:48;;;;;;;5.67;4.47;;;16.60;1.00;;;;;;5046732;28;20432;-63
2022/11/08 10:40:44;;;;;;;6.23;3.70;;;16.80;1.00;;;;;;5047494;28;20469;-62
2022/11/08 10:43:13;;;;;;;10.60;4.20;;;17.00;1.00;;;;;;5047164;28;20432;-62
2022/11/08 10:45:39;;;;;;;5.13;4.03;;;16.80;1.00;;;;;;5046497;28;20454;-63
2022/11/08 10:48:05;;;;;;;4.63;3.50;;;16.90;1.00;;;;;;5041326;28;20477;-62
2022/11/08 10:50:44;;;;;;;7.93;3.77;;;16.90;1.00;;;;;;5045878;28;20466;-62
2022/11/08 10:53:17;;;;;;;5.00;3.60;;;17.00;1.00;;;;;;5041915;28;20427;-60
2022/11/08 10:55:48;;;;;;;9.00;2.97;;;17.10;1.00;;;;;;5045001;28;20471;-62
2022/11/08 10:58:38;;;;;;;6.80;3.27;;;17.30;1.00;;;;;;5035950;28;20830;-61
2022/11/08 11:01:31;;;;;;;7.27;3.03;;;17.30;1.00;;;;;;5041732;28;20503;-62
2022/11/08 11:04:07;;;;;;;5.83;3.70;;;17.40;1.00;;;;;;5045560;28;20862;-62
2022/11/08 11:06:33;;;;;;;6.23;3.20;;;17.50;1.00;;;;;;5044089;28;20445;-61
2022/11/08 11:09:16;;;;;;;4.23;3.17;;;17.60;1.00;;;;;;5047386;28;20450;-62
2022/11/08 11:11:41;;;;;;;5.30;2.90;;;17.70;1.00;;;;;;5047441;28;20181;-60
2022/11/08 11:14:07;;;;;;;4.77;2.93;;;;;;;;;;5045692;28;20589;-62
2022/11/08 11:16:35;;;;;;;7.60;3.50;;;17.80;1.00;;;;;;5047970;28;20761;-62
2022/11/08 11:19:03;;;;;;;6.10;2.93;;;17.90;1.00;;;;;;5045997;28;20450;-63
2022/11/08 11:21:35;;;;;;;5.57;3.03;;;18.00;1.00;;;;;;5045262;28;20450;-62
2022/11/08 11:24:09;;;;;;;9.03;3.50;;;17.90;1.00;;;;;;5043552;28;20450;-63
2022/11/08 11:26:46;;;;;;;6.80;3.70;;;16.60;1.00;;;;;;5047631;28;20915;-63
2022/11/08 11:29:16;;;;;;;2.80;1.90;;;18.10;1.00;;;;;;5043661;28;20910;-61
2022/11/08 11:31:44;;;;;;;3.37;1.87;;;18.20;1.00;;;;;;5046275;28;20417;-62
2022/11/08 11:34:15;;;;;;;3.63;1.50;;;18.20;1.00;;;;;;5045586;28;20512;-62
2022/11/08 11:37:02;;;;;;;2.60;1.30;;;18.30;1.00;;;;;;5047446;28;20416;-62
2022/11/08 11:39:41;;;;;;;3.77;1.43;;;18.60;1.00;;;;;;5040097;28;20453;-61
2022/11/08 11:42:19;;;;;;;2.53;1.27;;;18.70;1.00;;;;;;5046052;28;20466;-62
2022/11/08 11:45:04;;;;;;;2.60;1.50;;;18.80;1.00;;;;;;5044075;28;20840;-62
2022/11/08 11:47:47;;;;;;;3.30;1.33;;;18.80;1.00;;;;;;5044985;28;21082;-62
2022/11/08 11:50:23;;;;;;;3.37;1.70;;;18.80;1.00;;;;;;5040036;28;20427;-62
2022/11/08 11:52:48;;;;;;;2.10;1.50;;;18.60;1.00;;;;;;5045094;28;20992;-62
2022/11/08 11:55:15;;;;;;;1.60;1.50;;;18.50;1.00;;;;;;5046464;28;20526;-61
2022/11/08 11:57:59;;;;;;;1.97;1.27;;;18.40;1.00;;;;;;5047076;28;20826;-61
2022/11/08 12:00:28;;;;;;;1.30;0.80;;;18.60;1.00;;;;;;5045632;28;20948;-62
2022/11/08 12:03:13;;;;;;;3.10;1.77;;;18.80;1.00;;;;;;5044793;28;20431;-63
2022/11/08 12:06:11;;;;;;;2.37;1.57;;;18.70;1.00;;;;;;5047228;28;20524;-62
2022/11/08 12:09:15;;;;;;;2.90;1.40;;;18.70;1.00;;;;;;5044793;28;20501;-63
2022/11/08 12:11:58;;;;;;;2.20;1.53;;;18.60;1.00;;;;;;5046773;28;20445;-61
2022/11/08 12:14:40;;;;;;;2.07;1.33;;;18.50;1.00;;;;;;5045590;28;20470;-62
2022/11/08 12:17:21;;;;;;;1.77;1.27;;;18.60;1.00;;;;;;5045022;28;20415;-62
2022/11/08 12:20:17;;;;;;;2.97;2.00;;;18.50;1.00;;;;;;5041656;28;20458;-62
2022/11/08 12:23:02;;;;;;;1.83;1.57;;;18.40;1.00;;;;;;5045883;28;20865;-62
2022/11/08 12:25:46;;;;;;;3.43;1.30;;;18.50;1.00;;;;;;5045122;28;20918;-62
2022/11/08 12:28:37;;;;;;;3.13;1.80;;;18.60;1.00;;;;;;5044599;28;20452;-63
2022/11/08 12:31:21;;;;;;;2.63;1.33;;;18.30;1.00;;;;;;5043553;28;20970;-62
2022/11/08 12:34:02;;;;;;;1.90;1.17;;;18.30;1.00;;;;;;5045137;28;20929;-63
2022/11/08 12:36:48;;;;;;;3.53;1.60;;;18.20;1.00;;;;;;5046343;28;21293;-63
2022/11/08 12:39:49;;;;;;;2.10;1.40;;;18.10;1.00;;;;;;5046378;28;20445;-62
2022/11/08 12:42:49;;;;;;;1.60;1.33;;;18.30;1.00;;;;;;5025626;28;20455;-61
2022/11/08 12:45:15;;;;;;;1.90;1.17;;;18.20;1.00;;;;;;5046853;28;20444;-62
2022/11/08 12:47:48;;;;;;;1.10;0.90;;;18.40;1.00;;;;;;5043762;28;20917;-62
2022/11/08 12:50:26;;;;;;;2.50;1.90;;;16.60;1.00;;;;;;5049976;28;20186;-63
2022/11/08 12:53:20;;;;;;;4.73;1.90;;;18.50;1.00;;;;;;5049084;28;20414;-61
2022/11/08 12:55:48;;;;;;;2.60;1.20;;;18.40;1.00;;;;;;5048797;28;20472;-63
2022/11/08 12:58:27;;;;;;;3.27;1.30;;;18.30;1.00;;;;;;5048479;28;20476;-63
2022/11/08 13:00:58;;;;;;;2.43;1.30;;;18.50;1.00;;;;;;5049547;28;20937;-62
2022/11/08 13:03:41;;;;;;;1.97;1.20;;;18.60;1.00;;;;;;5048275;28;20454;-61
2022/11/08 13:06:38;;;;;;;2.77;1.67;;;18.40;1.00;;;;;;5046901;28;20885;-62
2022/11/08 13:09:22;;;;;;;3.20;2.07;;;18.30;1.00;;;;;;5050064;28;20802;-63
2022/11/08 13:12:00;;;;;;;5.93;2.30;;;18.20;1.00;;;;;;5049766;28;20420;-62
2022/11/08 13:14:26;;;;;;;2.30;1.70;;;18.10;1.00;;;;;;5049021;28;20443;-62
2022/11/08 13:17:10;;;;;;;12.27;2.33;;;18.10;1.00;;;;;;5050434;28;20444;-62
2022/11/08 13:19:48;;;;;;;8.47;2.70;;;18.10;1.00;;;;;;5046971;28;20248;-63
2022/11/08 13:22:29;;;;;;;5.47;2.37;;;18.00;1.00;;;;;;5046960;28;20452;-62
2022/11/08 13:24:59;;;;;;;4.03;2.67;;;17.80;1.00;;;;;;5043687;28;20757;-62
2022/11/08 13:27:36;;;;;;;2.40;2.20;;;17.70;1.00;;;;;;5046564;28;20571;-62
2022/11/08 13:30:04;;;;;;;5.20;2.90;;;17.60;1.00;;;;;;5048056;28;20458;-62
2022/11/08 13:32:54;;;;;;;4.70;2.90;;;17.50;1.00;;;;;;5049030;28;20448;-62
2022/11/08 13:35:28;;;;;;;7.13;2.47;;;17.40;1.00;;;;;;5044999;28;20436;-62
2022/11/08 13:38:19;;;;;;;5.13;2.47;;;17.30;1.00;;;;;;5049101;28;20427;-63
2022/11/08 13:41:08;;;;;;;2.50;2.30;;;17.20;1.00;;;;;;5045468;28;20425;-62
2022/11/08 13:43:34;;;;;;;4.10;3.10;;;17.00;1.00;;;;;;5043761;28;20814;-63
2022/11/08 13:46:26;;;;;;;4.70;3.20;;;17.00;1.00;;;;;;5042899;28;20945;-62
2022/11/08 13:49:12;;;;;;;5.20;3.40;;;16.90;1.00;;;;;;5039536;28;20943;-62